aviador You're here:

K1YT Decoded Metar

in
Report Time2017-07-21 01:58:00
UTC Time2017-07-21 02:54:39
Flight Rules vfr VFR
Wind020° at 10 Gusting to 16 kt
W.Rank020° ranks 26
Current wind is above 020° avg. (5.5)
Visibility9999 m
Phenomena:N/A
Clouds:N/A
Expected CloudBase > 6,800 ft AGL from Temp-Dew spread
CeilingNone
Temp23°C
Dew Point06°C (33% RH)
AAT18.4°C
QNH1016 hPa
Raw Report
METAR K1YT 210158Z AUTO 02010G16KT 10SM CLR 23/06 A3000 RMK AO2 SLPNO
T02340057 $=

Extra information for K1YT:More info

Social comments